Time;durP1;ratioP1;P1;durP2;ratioP2;P2;SDS_P1;SDS_P2;PMS_P1;PMS_P2;Temp;Humidity;BMP_temperature;BMP_pressure;BME280_temperature;BME280_humidity;BME280_pressure;Samples;Min_cycle;Max_cycle;Signal;HPM_P1;HPM_P2
2023/09/02 00:00:24;;;;;;;7.00;3.05;;;13.80;99.90;;;;;;5036007;28;20125;-61
2023/09/02 00:02:50;;;;;;;5.45;2.92;;;13.90;99.90;;;;;;5039545;28;20416;-61
2023/09/02 00:05:15;;;;;;;5.65;3.25;;;13.90;99.90;;;;;;4989115;28;20034;-61
2023/09/02 00:07:41;;;;;;;5.93;3.28;;;13.80;99.90;;;;;;5055667;28;20043;-61
2023/09/02 00:10:08;;;;;;;6.32;3.42;;;13.80;99.90;;;;;;4989103;28;20490;-62
2023/09/02 00:12:34;;;;;;;6.38;3.03;;;13.70;99.90;;;;;;5056068;28;20111;-61
2023/09/02 00:15:00;;;;;;;6.63;3.30;;;13.70;99.90;;;;;;4988088;28;20043;-61
2023/09/02 00:17:25;;;;;;;5.53;2.83;;;13.70;99.90;;;;;;5056094;28;20042;-61
2023/09/02 00:19:51;;;;;;;6.07;3.33;;;13.70;99.90;;;;;;5055637;28;20046;-61
2023/09/02 00:22:17;;;;;;;3.72;2.33;;;13.70;99.90;;;;;;5054965;28;20052;-62
2023/09/02 00:24:43;;;;;;;5.97;3.35;;;13.70;99.90;;;;;;5055723;28;20087;-61
2023/09/02 00:27:09;;;;;;;5.28;2.75;;;13.70;99.90;;;;;;4988722;28;20087;-61
2023/09/02 00:29:35;;;;;;;4.80;3.00;;;13.80;99.90;;;;;;4987955;28;20046;-61
2023/09/02 00:32:00;;;;;;;5.97;3.10;;;13.80;99.90;;;;;;4988689;28;20046;-61
2023/09/02 00:34:26;;;;;;;6.85;3.75;;;13.80;99.90;;;;;;4987965;28;20137;-61
2023/09/02 00:36:53;;;;;;;6.43;3.40;;;13.80;99.90;;;;;;4987991;28;20126;-61
2023/09/02 00:39:18;;;;;;;5.00;2.92;;;13.80;99.90;;;;;;4987292;28;20057;-61
2023/09/02 00:41:51;;;;;;;8.77;3.63;;;13.80;99.90;;;;;;4986887;28;20042;-61
2023/09/02 00:44:17;;;;;;;6.03;3.22;;;13.80;99.90;;;;;;4988437;28;20075;-61
2023/09/02 00:46:44;;;;;;;9.55;3.45;;;13.80;99.90;;;;;;4987122;28;20124;-61
2023/09/02 00:49:10;;;;;;;5.05;2.92;;;13.80;99.90;;;;;;5019155;28;20061;-61
2023/09/02 00:51:35;;;;;;;4.47;2.92;;;13.80;99.90;;;;;;5055326;28;20054;-61
2023/09/02 00:54:01;;;;;;;6.30;3.50;;;13.70;99.90;;;;;;5055495;28;20054;-61
2023/09/02 00:56:28;;;;;;;8.30;3.22;;;13.70;99.90;;;;;;4987524;28;20046;-61
2023/09/02 00:58:58;;;;;;;6.13;3.20;;;13.70;99.90;;;;;;5038383;28;20042;-61
2023/09/02 01:01:24;;;;;;;6.15;3.63;;;13.70;99.90;;;;;;5038006;28;20129;-62
2023/09/02 01:03:50;;;;;;;8.75;3.63;;;13.70;99.90;;;;;;5054380;28;20046;-61
2023/09/02 01:06:16;;;;;;;4.85;2.72;;;13.60;99.90;;;;;;5055173;28;20038;-61
2023/09/02 01:08:43;;;;;;;8.63;3.40;;;13.70;99.90;;;;;;5055150;28;20042;-61
2023/09/02 01:11:09;;;;;;;7.63;3.42;;;13.60;99.90;;;;;;5037950;28;20038;-62
2023/09/02 01:13:35;;;;;;;7.57;3.80;;;13.60;99.90;;;;;;5055151;28;20038;-61
2023/09/02 01:16:02;;;;;;;8.10;3.92;;;13.60;99.90;;;;;;5054713;28;20069;-61
2023/09/02 01:18:29;;;;;;;5.22;3.58;;;13.60;99.90;;;;;;5054328;28;20064;-61
2023/09/02 01:21:18;;;;;;;5.55;3.38;;;13.60;99.90;;;;;;4987550;28;20088;-61
2023/09/02 01:24:21;;;;;;;7.45;3.45;;;13.70;99.90;;;;;;5071142;28;20087;-61
2023/09/02 01:27:09;;;;;;;7.22;3.58;;;13.60;99.90;;;;;;5054660;28;20537;-61
2023/09/02 01:29:40;;;;;;;11.07;4.85;;;13.60;99.90;;;;;;5038146;28;20129;-61
2023/09/02 01:32:07;;;;;;;5.45;3.13;;;13.60;99.90;;;;;;5054400;28;20107;-61
2023/09/02 01:34:34;;;;;;;7.65;3.85;;;13.60;99.90;;;;;;5054995;28;20626;-61
2023/09/02 01:37:02;;;;;;;5.80;3.67;;;13.60;99.90;;;;;;5054828;28;20578;-61
2023/09/02 01:39:31;;;;;;;9.18;4.20;;;13.60;99.90;;;;;;5053708;28;20064;-61
2023/09/02 01:42:00;;;;;;;6.80;3.70;;;13.60;99.90;;;;;;4987661;28;20089;-61
2023/09/02 01:44:28;;;;;;;6.82;3.45;;;13.50;99.90;;;;;;5053937;28;20520;-61
2023/09/02 01:46:55;;;;;;;10.45;3.95;;;13.60;99.90;;;;;;4968178;28;20035;-61
2023/09/02 01:49:21;;;;;;;6.80;3.72;;;13.50;99.90;;;;;;5035654;28;20038;-61
2023/09/02 01:51:48;;;;;;;5.47;3.25;;;13.60;99.90;;;;;;4986713;28;20065;-61
2023/09/02 01:54:14;;;;;;;4.47;3.30;;;13.50;99.90;;;;;;4986362;28;20131;-61
2023/09/02 01:56:40;;;;;;;4.72;3.30;;;13.50;99.90;;;;;;4987578;28;20501;-61
2023/09/02 01:59:06;;;;;;;7.57;3.38;;;13.50;99.90;;;;;;4989914;28;20030;-61
2023/09/02 02:01:34;;;;;;;7.63;4.10;;;13.50;99.90;;;;;;5037876;28;20046;-61
2023/09/02 02:04:27;;;;;;;5.47;2.70;;;13.50;99.90;;;;;;5054874;28;20049;-61
2023/09/02 02:07:00;;;;;;;10.25;4.13;;;13.50;99.90;;;;;;4986631;28;20045;-61
2023/09/02 02:09:43;;;;;;;6.93;3.10;;;13.50;99.90;;;;;;4987371;28;20506;-61
2023/09/02 02:12:10;;;;;;;6.90;3.83;;;13.50;99.90;;;;;;4987125;28;20054;-61
2023/09/02 02:14:35;;;;;;;5.55;3.20;;;13.50;99.90;;;;;;5089205;28;20125;-61
2023/09/02 02:17:03;;;;;;;7.70;3.45;;;13.40;99.90;;;;;;4990625;28;20179;-61
2023/09/02 02:19:30;;;;;;;4.93;2.90;;;13.40;99.90;;;;;;4990267;28;20038;-61
2023/09/02 02:21:55;;;;;;;5.85;3.40;;;13.40;99.90;;;;;;5075183;28;20036;-61
2023/09/02 02:24:21;;;;;;;5.93;3.13;;;13.40;99.90;;;;;;5074950;28;20445;-61
2023/09/02 02:26:47;;;;;;;8.65;3.95;;;13.40;99.90;;;;;;5040896;28;20166;-61
2023/09/02 02:29:13;;;;;;;7.97;4.18;;;13.40;99.90;;;;;;5058125;28;20117;-60
2023/09/02 02:31:38;;;;;;;6.18;4.10;;;13.40;99.90;;;;;;5041402;28;20076;-60
2023/09/02 02:34:04;;;;;;;5.90;3.15;;;13.40;99.90;;;;;;4989979;28;20042;-60
2023/09/02 02:36:30;;;;;;;5.97;2.90;;;13.40;99.90;;;;;;5057851;28;20073;-60
2023/09/02 02:38:56;;;;;;;7.63;3.55;;;13.40;99.90;;;;;;5057680;28;20053;-60
2023/09/02 02:41:21;;;;;;;5.22;2.90;;;13.40;99.90;;;;;;5056934;28;20047;-61
2023/09/02 02:43:47;;;;;;;5.85;2.97;;;13.40;99.90;;;;;;4990128;28;20039;-61
2023/09/02 02:46:13;;;;;;;7.45;2.80;;;13.40;99.90;;;;;;5057712;28;20451;-61
2023/09/02 02:48:39;;;;;;;5.63;2.80;;;13.30;99.90;;;;;;5057189;28;20042;-60
2023/09/02 02:51:04;;;;;;;5.22;2.88;;;13.40;99.90;;;;;;4990380;28;20070;-61
2023/09/02 02:53:30;;;;;;;5.53;2.88;;;13.30;99.90;;;;;;4972703;28;20536;-61
2023/09/02 02:55:56;;;;;;;7.15;2.78;;;13.40;99.90;;;;;;4988458;28;20047;-61
2023/09/02 02:58:22;;;;;;;5.40;2.67;;;13.40;99.90;;;;;;4989906;28;20042;-61
2023/09/02 03:00:49;;;;;;;5.95;3.08;;;13.30;99.90;;;;;;4989332;28;20034;-61
2023/09/02 03:03:15;;;;;;;5.50;2.60;;;13.30;99.90;;;;;;5056622;28;20054;-61
2023/09/02 03:05:42;;;;;;;6.47;3.03;;;13.30;99.90;;;;;;4989842;28;20050;-61
2023/09/02 03:08:09;;;;;;;8.73;3.90;;;13.30;99.90;;;;;;5057491;28;20050;-61
2023/09/02 03:10:35;;;;;;;5.20;2.60;;;13.30;99.90;;;;;;4989252;28;20038;-61
2023/09/02 03:13:05;;;;;;;5.85;3.17;;;13.30;99.90;;;;;;5057399;28;20034;-62
2023/09/02 03:15:31;;;;;;;;;;;13.20;99.90;;;;;;4989735;28;20046;-61
2023/09/02 03:17:57;;;;;;;5.82;3.42;;;13.20;99.90;;;;;;5056891;28;19921;-61
2023/09/02 03:20:23;;;;;;;7.95;3.08;;;13.20;99.90;;;;;;5056942;28;20073;-61
2023/09/02 03:22:49;;;;;;;8.27;3.22;;;13.20;99.90;;;;;;4988332;28;20073;-61
2023/09/02 03:25:15;;;;;;;5.45;2.75;;;13.20;99.90;;;;;;4988243;28;20056;-61
2023/09/02 03:27:41;;;;;;;6.82;2.42;;;13.10;99.90;;;;;;4988541;28;20039;-61
2023/09/02 03:30:08;;;;;;;4.53;2.60;;;13.20;99.90;;;;;;4988974;28;20073;-61
2023/09/02 03:32:34;;;;;;;4.35;2.78;;;13.20;99.90;;;;;;4989675;28;20051;-61
2023/09/02 03:35:01;;;;;;;5.10;2.75;;;13.10;99.90;;;;;;4988200;28;20125;-61
2023/09/02 03:37:27;;;;;;;6.13;3.10;;;13.10;99.90;;;;;;4988728;28;20074;-61
2023/09/02 03:39:57;;;;;;;6.93;2.75;;;13.10;99.90;;;;;;4989432;28;20072;-61
2023/09/02 03:42:23;;;;;;;8.73;2.47;;;13.10;99.90;;;;;;5056565;28;20103;-61
2023/09/02 03:44:48;;;;;;;5.75;2.60;;;13.10;99.90;;;;;;5056135;28;20050;-61
2023/09/02 03:47:14;;;;;;;5.70;3.10;;;13.10;99.90;;;;;;4989301;28;20042;-61
2023/09/02 03:49:40;;;;;;;4.50;3.00;;;13.10;99.90;;;;;;5056343;28;20043;-61
2023/09/02 03:52:06;;;;;;;4.78;2.67;;;13.10;99.90;;;;;;5039114;28;20042;-61
2023/09/02 03:54:32;;;;;;;5.55;2.60;;;13.10;99.90;;;;;;5056488;28;20125;-61
2023/09/02 03:56:57;;;;;;;5.68;2.85;;;13.20;99.90;;;;;;5056508;28;20072;-61
2023/09/02 03:59:24;;;;;;;6.10;2.85;;;13.20;99.90;;;;;;5055338;28;20387;-61
2023/09/02 04:01:49;;;;;;;10.10;3.35;;;13.20;99.90;;;;;;4989157;28;20039;-61
2023/09/02 04:04:15;;;;;;;7.15;3.58;;;13.20;99.90;;;;;;5055532;28;20416;-61
2023/09/02 04:06:41;;;;;;;6.82;3.53;;;13.20;99.90;;;;;;5056142;28;20039;-61
2023/09/02 04:09:09;;;;;;;8.38;3.15;;;13.20;99.90;;;;;;5056051;28;20061;-61
2023/09/02 04:11:35;;;;;;;6.80;2.97;;;13.20;99.90;;;;;;4988270;28;20425;-61
2023/09/02 04:14:02;;;;;;;6.45;3.28;;;13.20;99.90;;;;;;5056172;28;20050;-61
2023/09/02 04:16:28;;;;;;;5.07;2.65;;;13.20;99.90;;;;;;5056150;28;20129;-61
2023/09/02 04:18:53;;;;;;;6.03;2.90;;;13.20;99.90;;;;;;5045619;28;20122;-61
2023/09/02 04:21:19;;;;;;;6.20;3.58;;;13.30;99.90;;;;;;4969109;28;20042;-61
2023/09/02 04:23:46;;;;;;;6.07;3.05;;;13.30;99.90;;;;;;4990924;28;20062;-61
2023/09/02 04:26:12;;;;;;;7.32;3.40;;;13.30;99.90;;;;;;4988146;28;20118;-61
2023/09/02 04:28:38;;;;;;;6.70;3.33;;;13.30;99.90;;;;;;4988543;28;20115;-61
2023/09/02 04:31:04;;;;;;;5.90;3.05;;;13.30;99.90;;;;;;4987383;28;20074;-61
2023/09/02 04:33:30;;;;;;;4.32;2.40;;;13.30;99.90;;;;;;4995954;28;20117;-61
2023/09/02 04:35:56;;;;;;;5.38;2.40;;;13.30;99.90;;;;;;5055484;28;20138;-61
2023/09/02 04:38:21;;;;;;;7.47;3.45;;;13.20;99.90;;;;;;5064348;28;20044;-61
2023/09/02 04:40:47;;;;;;;5.80;3.50;;;13.20;99.90;;;;;;5089929;28;20101;-61
2023/09/02 04:43:14;;;;;;;5.75;2.70;;;13.20;99.90;;;;;;5090750;28;20039;-61
2023/09/02 04:45:41;;;;;;;5.68;3.05;;;13.20;99.90;;;;;;5055489;28;20047;-61
2023/09/02 04:48:09;;;;;;;2.90;1.90;;;13.30;99.90;;;;;;5055146;28;20053;-61
2023/09/02 04:50:35;;;;;;;5.68;3.42;;;13.30;99.90;;;;;;5055091;28;20038;-61
2023/09/02 04:53:02;;;;;;;4.78;2.70;;;13.30;99.90;;;;;;4988202;28;20039;-61
2023/09/02 04:55:31;;;;;;;6.07;3.42;;;13.20;99.90;;;;;;5013823;28;20310;-61
2023/09/02 04:57:57;;;;;;;5.77;3.03;;;13.30;99.90;;;;;;4967726;28;20057;-61
2023/09/02 05:00:24;;;;;;;6.07;2.45;;;13.30;99.90;;;;;;4971181;28;20505;-61
2023/09/02 05:02:50;;;;;;;5.50;2.30;;;13.40;99.90;;;;;;5054727;28;20068;-61
2023/09/02 05:05:18;;;;;;;4.65;2.28;;;13.30;99.90;;;;;;4987956;28;20074;-61
2023/09/02 05:07:45;;;;;;;4.88;2.50;;;13.30;99.90;;;;;;5054435;28;20121;-61
2023/09/02 05:10:12;;;;;;;5.70;2.70;;;13.40;99.90;;;;;;5054977;28;20043;-60
2023/09/02 05:12:38;;;;;;;6.47;3.53;;;13.30;99.90;;;;;;5038398;28;20042;-61
2023/09/02 05:15:04;;;;;;;5.78;3.17;;;13.40;99.90;;;;;;4978237;28;20041;-61
2023/09/02 05:17:32;;;;;;;7.47;3.08;;;13.40;99.90;;;;;;5034954;28;20053;-61
2023/09/02 05:19:58;;;;;;;7.38;3.08;;;13.50;99.90;;;;;;5051583;28;20108;-62
2023/09/02 05:22:24;;;;;;;4.88;2.50;;;13.40;99.90;;;;;;5058321;28;20586;-61
2023/09/02 05:24:50;;;;;;;8.10;2.75;;;13.50;99.90;;;;;;5054585;28;20125;-61
2023/09/02 05:27:16;;;;;;;5.32;3.10;;;13.50;99.90;;;;;;4987749;28;20042;-61
2023/09/02 05:29:42;;;;;;;4.78;2.55;;;13.60;99.90;;;;;;5054408;28;20068;-61
2023/09/02 05:32:12;;;;;;;4.43;3.20;;;13.60;99.90;;;;;;4987827;28;20050;-62
2023/09/02 05:34:38;;;;;;;4.97;2.90;;;13.60;99.90;;;;;;5054860;28;20082;-61
2023/09/02 05:37:04;;;;;;;5.93;2.67;;;13.60;99.90;;;;;;5008928;28;20067;-61
2023/09/02 05:39:30;;;;;;;5.35;2.75;;;13.70;99.90;;;;;;5071688;28;20043;-61
2023/09/02 05:41:56;;;;;;;3.97;2.85;;;13.70;99.90;;;;;;5089865;28;20044;-61
2023/09/02 05:44:21;;;;;;;6.32;2.63;;;13.70;99.90;;;;;;5089136;28;20044;-62
2023/09/02 05:46:47;;;;;;;5.88;3.03;;;13.80;99.90;;;;;;5054943;28;20107;-62
2023/09/02 05:49:13;;;;;;;4.88;3.28;;;13.80;99.90;;;;;;5055689;28;20046;-61
2023/09/02 05:51:39;;;;;;;5.25;2.92;;;13.80;99.90;;;;;;5058505;28;20401;-61
2023/09/02 05:54:09;;;;;;;8.02;3.50;;;13.80;99.90;;;;;;4990885;28;20109;-61
2023/09/02 05:56:35;;;;;;;;;;;13.80;99.90;;;;;;5041829;28;20735;-61
2023/09/02 05:59:02;;;;;;;5.72;2.92;;;13.80;99.90;;;;;;5041442;28;19917;-61
2023/09/02 06:01:28;;;;;;;5.60;2.88;;;13.90;99.90;;;;;;4990704;28;20047;-61
2023/09/02 06:03:54;;;;;;;5.20;2.85;;;13.90;99.90;;;;;;5058195;28;20068;-61
2023/09/02 06:06:20;;;;;;;6.28;3.67;;;13.90;99.90;;;;;;5058305;28;20428;-61
2023/09/02 06:08:46;;;;;;;7.15;3.33;;;14.00;99.90;;;;;;4990634;28;20091;-61
2023/09/02 06:11:12;;;;;;;3.92;2.35;;;14.00;99.90;;;;;;5037549;28;20042;-61
2023/09/02 06:13:37;;;;;;;5.55;3.03;;;14.00;99.90;;;;;;4971135;28;20117;-61
2023/09/02 06:16:05;;;;;;;7.32;3.28;;;14.00;99.90;;;;;;5038576;28;20505;-62
2023/09/02 06:18:31;;;;;;;6.70;3.42;;;13.90;99.90;;;;;;4976679;28;20034;-61
2023/09/02 06:20:58;;;;;;;5.60;3.10;;;13.90;99.90;;;;;;4989299;28;20042;-61
2023/09/02 06:23:25;;;;;;;7.03;3.67;;;13.90;99.90;;;;;;4972679;28;20046;-61
2023/09/02 06:25:58;;;;;;;8.40;3.13;;;13.90;99.90;;;;;;4992431;28;20072;-61
2023/09/02 06:28:24;;;;;;;6.53;3.80;;;14.00;99.90;;;;;;4990565;28;20478;-61
2023/09/02 06:30:50;;;;;;;8.98;3.90;;;14.00;99.90;;;;;;4990575;28;20462;-61
2023/09/02 06:33:18;;;;;;;8.70;3.28;;;14.00;99.90;;;;;;4989651;28;20081;-61
2023/09/02 06:35:43;;;;;;;8.02;4.38;;;14.10;99.90;;;;;;4990500;28;20111;-62
2023/09/02 06:38:09;;;;;;;9.13;4.25;;;14.10;99.90;;;;;;5074704;28;20040;-61
2023/09/02 06:40:35;;;;;;;6.05;3.67;;;14.20;99.90;;;;;;5074227;28;20087;-62
2023/09/02 06:43:01;;;;;;;5.97;2.83;;;14.20;99.90;;;;;;5074703;28;20044;-61
2023/09/02 06:45:26;;;;;;;7.55;3.42;;;14.30;99.90;;;;;;5078382;28;20048;-61
2023/09/02 06:47:52;;;;;;;7.25;3.38;;;14.40;99.90;;;;;;5057587;28;20042;-62
2023/09/02 06:50:18;;;;;;;5.40;2.90;;;14.50;99.90;;;;;;4990220;28;20069;-61
2023/09/02 06:52:43;;;;;;;6.95;3.38;;;14.50;99.90;;;;;;5057131;28;20042;-62
2023/09/02 06:55:09;;;;;;;9.68;3.42;;;14.60;99.90;;;;;;5057948;28;20555;-61
2023/09/02 06:57:39;;;;;;;5.72;2.95;;;14.70;99.90;;;;;;5057597;28;20594;-61
2023/09/02 07:00:05;;;;;;;;;;;14.80;99.90;;;;;;5056678;28;20122;-61
2023/09/02 07:02:31;;;;;;;7.88;3.10;;;14.90;99.90;;;;;;5040716;28;19921;-61
2023/09/02 07:04:56;;;;;;;6.65;3.67;;;15.00;99.90;;;;;;4990030;28;20482;-62
2023/09/02 07:07:22;;;;;;;6.93;3.78;;;15.00;99.90;;;;;;4981706;28;20491;-62
2023/09/02 07:09:48;;;;;;;6.18;3.10;;;15.10;99.90;;;;;;5037404;28;20486;-62
2023/09/02 07:12:15;;;;;;;9.20;3.47;;;15.10;99.90;;;;;;4970384;28;20047;-62
2023/09/02 07:14:41;;;;;;;7.53;3.47;;;15.10;99.90;;;;;;4969704;28;20038;-61
2023/09/02 07:17:06;;;;;;;7.45;3.83;;;15.20;99.90;;;;;;4970224;28;20047;-61
2023/09/02 07:19:32;;;;;;;10.30;4.20;;;15.30;99.90;;;;;;5003965;28;20042;-62
2023/09/02 07:21:58;;;;;;;8.70;3.17;;;15.40;99.90;;;;;;4987829;28;20034;-61
2023/09/02 07:24:24;;;;;;;9.13;4.07;;;15.60;99.90;;;;;;5056698;28;20557;-62
2023/09/02 07:26:50;;;;;;;7.78;3.92;;;15.70;99.90;;;;;;5056925;28;20035;-62
2023/09/02 07:29:16;;;;;;;7.43;3.85;;;15.80;99.90;;;;;;5072629;28;20044;-62
2023/09/02 07:31:42;;;;;;;7.07;4.13;;;16.00;99.90;;;;;;4989832;28;20049;-62
2023/09/02 07:34:07;;;;;;;10.35;4.40;;;16.10;99.90;;;;;;5056844;28;20133;-62
2023/09/02 07:36:33;;;;;;;9.32;3.88;;;16.30;99.90;;;;;;5056422;28;20038;-62
2023/09/02 07:38:59;;;;;;;10.20;4.22;;;16.50;99.90;;;;;;5056978;28;20150;-62
2023/09/02 07:41:25;;;;;;;10.38;4.43;;;16.60;99.90;;;;;;5071343;28;20056;-62
2023/09/02 07:43:51;;;;;;;11.38;4.57;;;16.70;99.90;;;;;;4989091;28;20486;-61
2023/09/02 07:46:16;;;;;;;8.85;4.57;;;16.90;99.90;;;;;;4989359;28;20063;-62
2023/09/02 07:48:43;;;;;;;10.63;4.40;;;17.10;99.90;;;;;;5055884;28;20043;-62
2023/09/02 07:51:09;;;;;;;8.32;4.93;;;17.20;99.90;;;;;;5056679;28;20072;-62
2023/09/02 07:53:35;;;;;;;7.20;3.30;;;17.30;99.90;;;;;;5040024;28;20539;-62
2023/09/02 07:56:01;;;;;;;8.45;4.40;;;17.40;99.90;;;;;;5056042;28;20104;-62
2023/09/02 07:58:27;;;;;;;9.60;3.50;;;17.60;99.90;;;;;;5060337;28;20058;-62
2023/09/02 08:00:58;;;;;;;10.13;4.50;;;17.70;99.90;;;;;;5056012;28;20121;-62
2023/09/02 08:03:24;;;;;;;8.82;4.75;;;18.00;99.90;;;;;;4976352;28;20042;-62
2023/09/02 08:05:50;;;;;;;6.85;4.38;;;18.20;99.90;;;;;;4969595;28;20042;-62
2023/09/02 08:08:16;;;;;;;7.90;3.72;;;18.60;99.90;;;;;;4971364;28;20096;-62
2023/09/02 08:10:41;;;;;;;10.60;4.63;;;19.00;99.90;;;;;;5035454;28;20043;-62
2023/09/02 08:13:07;;;;;;;7.32;3.90;;;19.60;99.90;;;;;;5035556;28;20093;-62
2023/09/02 08:15:33;;;;;;;10.07;3.70;;;20.00;99.90;;;;;;4971376;28;20047;-62
2023/09/02 08:17:59;;;;;;;11.63;5.05;;;20.30;99.90;;;;;;5054060;28;20043;-62
2023/09/02 08:20:35;;;;;;;7.97;3.80;;;20.70;99.90;;;;;;5046089;28;20038;-63
2023/09/02 08:23:01;;;;;;;8.35;4.28;;;21.10;99.90;;;;;;5052576;28;20059;-63
2023/09/02 08:25:27;;;;;;;10.43;4.47;;;21.40;99.90;;;;;;5052121;28;20054;-63
2023/09/02 08:27:52;;;;;;;10.45;5.05;;;21.70;99.90;;;;;;5035848;28;20046;-63
2023/09/02 08:30:18;;;;;;;8.52;4.47;;;22.00;99.90;;;;;;4968623;28;20118;-63
2023/09/02 08:32:44;;;;;;;8.73;4.50;;;22.30;99.90;;;;;;5035456;28;20050;-63
2023/09/02 08:35:12;;;;;;;7.60;3.58;;;22.60;99.90;;;;;;4968904;28;20043;-63
2023/09/02 08:37:38;;;;;;;8.40;4.05;;;22.80;99.90;;;;;;5057018;28;20086;-63
2023/09/02 08:40:04;;;;;;;9.43;3.72;;;22.90;99.90;;;;;;5035646;28;20081;-63
2023/09/02 08:42:34;;;;;;;6.00;3.78;;;23.10;99.90;;;;;;5003587;28;20522;-64
2023/09/02 08:45:05;;;;;;;6.38;3.53;;;23.50;99.90;;;;;;4987741;28;20383;-63
2023/09/02 08:47:34;;;;;;;8.82;3.47;;;23.50;99.90;;;;;;5055052;28;20050;-64
2023/09/02 08:50:01;;;;;;;9.60;3.70;;;23.60;99.90;;;;;;4988370;28;20507;-63
2023/09/02 08:52:27;;;;;;;7.78;3.70;;;23.70;99.90;;;;;;5046172;28;20384;-63
2023/09/02 08:54:54;;;;;;;10.07;4.32;;;24.00;99.90;;;;;;5072282;28;20055;-64
2023/09/02 08:57:20;;;;;;;8.88;4.25;;;24.30;99.90;;;;;;5034460;28;20049;-63
2023/09/02 08:59:47;;;;;;;9.55;4.00;;;24.50;99.90;;;;;;5034427;28;20039;-64
2023/09/02 09:02:12;;;;;;;8.05;4.45;;;24.70;99.90;;;;;;5035232;28;20058;-63
2023/09/02 09:04:39;;;;;;;8.65;4.28;;;24.80;99.90;;;;;;4968546;28;20035;-63
2023/09/02 09:07:05;;;;;;;8.48;4.00;;;24.60;99.90;;;;;;5034456;28;20047;-63
2023/09/02 09:09:37;;;;;;;13.40;4.80;;;24.40;99.90;;;;;;5035303;28;20078;-63
2023/09/02 09:12:06;;;;;;;8.18;3.78;;;24.00;99.90;;;;;;4968736;28;20038;-62
2023/09/02 09:14:35;;;;;;;10.20;4.57;;;23.60;99.90;;;;;;5035405;28;20046;-62
2023/09/02 09:17:01;;;;;;;10.63;4.25;;;23.30;99.90;;;;;;4987745;28;20046;-62
2023/09/02 09:19:27;;;;;;;8.30;4.22;;;23.00;99.90;;;;;;5054211;28;20057;-62
2023/09/02 09:21:54;;;;;;;8.25;3.78;;;22.90;99.90;;;;;;5054683;28;20049;-62
2023/09/02 09:24:21;;;;;;;10.40;4.47;;;23.20;99.90;;;;;;4987477;28;20082;-62
2023/09/02 09:26:48;;;;;;;8.93;4.25;;;23.30;99.90;;;;;;4987113;28;20092;-62
2023/09/02 09:29:16;;;;;;;9.57;4.32;;;23.10;99.90;;;;;;5054926;28;20038;-62
2023/09/02 09:31:43;;;;;;;12.73;4.47;;;23.00;99.90;;;;;;4987700;28;20042;-62
2023/09/02 09:34:10;;;;;;;9.23;4.30;;;23.50;99.90;;;;;;5037493;28;20510;-62
2023/09/02 09:36:35;;;;;;;12.05;4.78;;;23.70;99.90;;;;;;5054429;28;20049;-62
2023/09/02 09:39:03;;;;;;;8.43;4.05;;;24.00;99.90;;;;;;4968248;28;20043;-62
2023/09/02 09:41:30;;;;;;;10.13;4.15;;;24.50;99.90;;;;;;4969393;28;20121;-63
2023/09/02 09:44:16;;;;;;;8.10;4.38;;;24.90;99.90;;;;;;4987671;28;20050;-62
2023/09/02 09:46:51;;;;;;;12.80;3.80;;;25.00;99.90;;;;;;5054696;28;20085;-62
2023/09/02 09:49:28;;;;;;;8.77;4.30;;;24.90;99.90;;;;;;4986876;28;20111;-63
2023/09/02 09:52:00;;;;;;;9.43;4.53;;;25.10;99.90;;;;;;5054440;28;20042;-62
2023/09/02 09:54:45;;;;;;;7.35;3.40;;;25.00;99.90;;;;;;5054460;28;20050;-63
2023/09/02 09:57:34;;;;;;;9.27;3.80;;;25.10;99.90;;;;;;5071376;28;20487;-62
2023/09/02 10:00:00;;;;;;;8.05;4.18;;;25.40;99.90;;;;;;5053816;28;20054;-63
2023/09/02 10:02:26;;;;;;;9.48;4.82;;;25.80;99.90;;;;;;5054054;28;20133;-62
2023/09/02 10:04:54;;;;;;;8.85;3.85;;;25.80;99.90;;;;;;4987339;28;20575;-62
2023/09/02 10:07:25;;;;;;;9.23;4.03;;;25.40;99.90;;;;;;4987212;28;20494;-62
2023/09/02 10:09:53;;;;;;;9.85;3.85;;;24.90;99.90;;;;;;5053775;28;20549;-63
2023/09/02 10:12:19;;;;;;;7.85;4.18;;;24.70;99.90;;;;;;5054278;28;20046;-62
2023/09/02 10:14:46;;;;;;;8.68;4.20;;;24.90;99.90;;;;;;4987294;28;20043;-63
2023/09/02 10:17:13;;;;;;;7.95;4.15;;;25.40;99.90;;;;;;4986558;28;20410;-62
2023/09/02 10:19:40;;;;;;;8.50;3.25;;;25.90;99.90;;;;;;4987005;28;20047;-62
2023/09/02 10:22:07;;;;;;;8.35;3.03;;;26.40;99.90;;;;;;4987145;28;20160;-62
2023/09/02 10:24:37;;;;;;;5.38;3.28;;;26.70;99.90;;;;;;4985152;28;20046;-63
2023/09/02 10:27:14;;;;;;;9.00;3.55;;;27.10;99.90;;;;;;4987045;28;20100;-63
2023/09/02 10:29:43;;;;;;;6.20;3.30;;;27.30;99.90;;;;;;5036862;28;20049;-63
2023/09/02 10:32:12;;;;;;;5.15;2.88;;;27.40;99.90;;;;;;5054270;28;20472;-63
2023/09/02 10:34:51;;;;;;;5.55;2.60;;;27.10;99.90;;;;;;4972113;28;20046;-63
2023/09/02 10:37:24;;;;;;;5.50;2.97;;;26.90;99.90;;;;;;5037315;28;20046;-62
2023/09/02 10:39:50;;;;;;;6.95;3.63;;;26.50;99.90;;;;;;4989509;28;20070;-63
2023/09/02 10:42:18;;;;;;;5.40;3.35;;;26.60;99.90;;;;;;5057580;28;20074;-63
2023/09/02 10:44:44;;;;;;;7.07;3.28;;;27.00;99.90;;;;;;4989592;28;20121;-62
2023/09/02 10:47:11;;;;;;;7.13;2.88;;;27.60;99.90;;;;;;4990277;28;20144;-63
2023/09/02 10:49:38;;;;;;;5.80;3.03;;;28.00;99.90;;;;;;4989742;28;20530;-63
2023/09/02 10:52:04;;;;;;;6.43;3.42;;;28.30;99.90;;;;;;5073807;28;20082;-62
2023/09/02 10:55:03;;;;;;;5.15;2.22;;;28.30;99.90;;;;;;5093003;28;20040;-63
2023/09/02 10:57:43;;;;;;;6.43;3.03;;;28.40;99.90;;;;;;5091897;28;20079;-62
2023/09/02 11:00:19;;;;;;;8.35;2.90;;;28.60;99.90;;;;;;5056983;28;20057;-63
2023/09/02 11:02:47;;;;;;;4.97;2.50;;;28.70;99.30;;;;;;5057273;28;20155;-60
2023/09/02 11:05:13;;;;;;;7.50;2.67;;;28.80;99.20;;;;;;4989301;28;20075;-60
2023/09/02 11:07:40;;;;;;;7.10;2.80;;;28.80;99.60;;;;;;4989816;28;20103;-60
2023/09/02 11:10:10;;;;;;;7.15;2.80;;;28.70;99.70;;;;;;4989647;28;20049;-60
2023/09/02 11:12:58;;;;;;;4.93;2.17;;;28.40;98.60;;;;;;5056521;28;20056;-60
2023/09/02 11:15:24;;;;;;;;;;;28.30;97.40;;;;;;5057094;28;20528;-61
2023/09/02 11:17:50;;;;;;;3.38;1.98;;;28.20;98.40;;;;;;5057200;28;19918;-60
2023/09/02 11:20:19;;;;;;;3.90;1.98;;;28.00;96.60;;;;;;4988988;28;20038;-60
2023/09/02 11:22:47;;;;;;;4.90;2.35;;;27.70;95.80;;;;;;5056423;28;20042;-60
2023/09/02 11:25:32;;;;;;;;;;;27.30;96.70;;;;;;4990004;28;20089;-59
2023/09/02 11:28:00;;;;;;;4.47;2.17;;;26.80;94.80;;;;;;5057142;28;19945;-60
2023/09/02 11:30:26;;;;;;;5.60;2.83;;;26.10;98.20;;;;;;4978153;28;20118;-59
2023/09/02 11:32:54;;;;;;;4.80;2.45;;;25.60;99.50;;;;;;5019456;28;20047;-59
2023/09/02 11:35:26;;;;;;;4.88;1.58;;;25.40;99.90;;;;;;4982615;28;20053;-60
2023/09/02 11:37:52;;;;;;;5.90;1.98;;;25.50;99.90;;;;;;4989465;28;20049;-60
2023/09/02 11:40:20;;;;;;;6.93;2.38;;;25.70;99.90;;;;;;5056321;28;20395;-60
2023/09/02 11:43:05;;;;;;;5.00;1.63;;;25.80;99.90;;;;;;5056439;28;20054;-60
2023/09/02 11:45:34;;;;;;;2.45;1.60;;;25.90;99.00;;;;;;5056247;28;20074;-60
2023/09/02 11:48:02;;;;;;;5.25;2.55;;;26.00;99.70;;;;;;5055852;28;20163;-59
2023/09/02 11:50:28;;;;;;;2.88;1.83;;;25.90;99.10;;;;;;4989434;28;20511;-60
2023/09/02 11:52:58;;;;;;;5.15;2.08;;;25.60;99.30;;;;;;5066515;28;20047;-59
2023/09/02 11:55:25;;;;;;;3.80;1.98;;;25.10;99.60;;;;;;5037349;28;20512;-59
2023/09/02 11:57:52;;;;;;;4.05;1.83;;;24.70;99.90;;;;;;5073685;28;20036;-59
2023/09/02 12:00:20;;;;;;;3.90;2.15;;;24.40;99.90;;;;;;5017134;28;20504;-59
2023/09/02 12:02:47;;;;;;;4.00;2.03;;;24.20;99.90;;;;;;4988955;28;20122;-59
2023/09/02 12:05:14;;;;;;;3.42;1.50;;;24.10;99.90;;;;;;5055954;28;20133;-60
2023/09/02 12:07:43;;;;;;;1.90;1.15;;;24.30;99.90;;;;;;5055900;28;20091;-59
2023/09/02 12:10:11;;;;;;;2.47;1.33;;;24.50;99.90;;;;;;5055911;28;20492;-63
2023/09/02 12:12:42;;;;;;;3.13;1.65;;;24.90;99.90;;;;;;4988758;28;20046;-61
2023/09/02 12:15:15;;;;;;;4.20;1.48;;;25.20;99.90;;;;;;4970889;28;20069;-61
2023/09/02 12:17:42;;;;;;;3.67;1.75;;;25.40;99.90;;;;;;4989024;28;20439;-61
2023/09/02 12:20:09;;;;;;;2.00;1.10;;;25.60;99.90;;;;;;4988806;28;20069;-61
2023/09/02 12:22:42;;;;;;;5.55;1.70;;;25.70;99.90;;;;;;4986921;28;20100;-61
2023/09/02 12:25:20;;;;;;;6.13;1.77;;;25.60;99.90;;;;;;4988530;28;20506;-60
2023/09/02 12:27:47;;;;;;;3.90;1.23;;;25.50;99.90;;;;;;5053022;28;20050;-60
2023/09/02 12:30:13;;;;;;;4.28;1.60;;;25.50;99.90;;;;;;5055056;28;20115;-60
2023/09/02 12:32:39;;;;;;;3.85;1.40;;;25.20;99.90;;;;;;4988402;28;20409;-61
2023/09/02 12:35:09;;;;;;;3.78;1.27;;;25.00;99.90;;;;;;4988614;28;20038;-60
2023/09/02 12:37:36;;;;;;;4.15;1.77;;;24.90;99.90;;;;;;4987801;28;20046;-61
2023/09/02 12:40:11;;;;;;;2.33;1.30;;;25.00;99.90;;;;;;5055422;28;20085;-61
2023/09/02 12:42:37;;;;;;;2.30;1.60;;;25.10;99.90;;;;;;4987812;28;20042;-61
2023/09/02 12:45:08;;;;;;;4.32;1.80;;;25.00;99.90;;;;;;5055457;28;20052;-61
2023/09/02 12:47:38;;;;;;;4.03;1.42;;;25.00;99.90;;;;;;5054980;28;20042;-60
2023/09/02 12:50:05;;;;;;;4.63;1.20;;;25.20;99.40;;;;;;5054613;28;20046;-61